sensor_id;sensor_type;location;lat;lon;timestamp;pressure;altitude;pressure_sealevel;temperature;humidity
43488;BME280;29078;41.932;25.554;2023-04-10T00:00:48;99675.28;;;11.11;46.04
43488;BME280;29078;41.932;25.554;2023-04-10T00:03:21;99662.97;;;11.03;46.13
43488;BME280;29078;41.932;25.554;2023-04-10T00:05:47;99677.75;;;11.12;46.34
43488;BME280;29078;41.932;25.554;2023-04-10T00:08:12;99638.75;;;10.77;46.08
43488;BME280;29078;41.932;25.554;2023-04-10T00:10:37;99651.78;;;10.78;46.48
43488;BME280;29078;41.932;25.554;2023-04-10T00:13:04;99705.00;;;11.13;46.57
43488;BME280;29078;41.932;25.554;2023-04-10T00:15:29;99718.34;;;11.20;46.18
43488;BME280;29078;41.932;25.554;2023-04-10T00:17:55;99720.84;;;11.13;46.40
43488;BME280;29078;41.932;25.554;2023-04-10T00:20:21;99713.28;;;11.10;46.59
43488;BME280;29078;41.932;25.554;2023-04-10T00:22:47;99698.84;;;10.98;46.79
43488;BME280;29078;41.932;25.554;2023-04-10T00:25:13;99593.66;;;10.33;46.29
43488;BME280;29078;41.932;25.554;2023-04-10T00:27:38;99716.81;;;11.02;46.84
43488;BME280;29078;41.932;25.554;2023-04-10T00:30:05;99678.38;;;10.77;46.83
43488;BME280;29078;41.932;25.554;2023-04-10T00:32:30;99653.25;;;10.58;46.85
43488;BME280;29078;41.932;25.554;2023-04-10T00:34:56;99621.88;;;10.32;47.45
43488;BME280;29078;41.932;25.554;2023-04-10T00:37:21;99669.91;;;10.59;47.45
43488;BME280;29078;41.932;25.554;2023-04-10T00:39:46;99696.38;;;10.73;47.24
43488;BME280;29078;41.932;25.554;2023-04-10T00:42:12;99600.88;;;10.08;47.54
43488;BME280;29078;41.932;25.554;2023-04-10T00:44:37;99618.19;;;10.10;47.26
43488;BME280;29078;41.932;25.554;2023-04-10T00:47:04;99696.44;;;10.65;46.99
43488;BME280;29078;41.932;25.554;2023-04-10T00:49:30;99636.28;;;10.22;47.56
43488;BME280;29078;41.932;25.554;2023-04-10T00:51:55;99695.13;;;10.61;47.65
43488;BME280;29078;41.932;25.554;2023-04-10T00:54:22;99692.38;;;10.55;47.68
43488;BME280;29078;41.932;25.554;2023-04-10T00:56:48;99638.75;;;10.23;47.94
43488;BME280;29078;41.932;25.554;2023-04-10T00:59:14;99592.22;;;9.91;48.01
43488;BME280;29078;41.932;25.554;2023-04-10T01:01:39;99600.91;;;10.00;47.97
43488;BME280;29078;41.932;25.554;2023-04-10T01:04:05;99617.06;;;10.05;48.01
43488;BME280;29078;41.932;25.554;2023-04-10T01:10:14;99676.28;;;10.41;47.65
43488;BME280;29078;41.932;25.554;2023-04-10T01:12:24;99673.78;;;10.40;48.09
43488;BME280;29078;41.932;25.554;2023-04-10T01:15:09;99677.41;;;10.39;48.05
43488;BME280;29078;41.932;25.554;2023-04-10T01:18:03;99676.28;;;10.33;47.92
43488;BME280;29078;41.932;25.554;2023-04-10T01:20:33;99624.91;;;9.82;48.27
43488;BME280;29078;41.932;25.554;2023-04-10T01:23:27;99677.50;;;10.23;48.11
43488;BME280;29078;41.932;25.554;2023-04-10T01:26:05;99613.22;;;9.76;48.38
43488;BME280;29078;41.932;25.554;2023-04-10T01:31:51;99669.16;;;10.03;48.96
43488;BME280;29078;41.932;25.554;2023-04-10T01:34:40;99623.81;;;9.68;49.07
43488;BME280;29078;41.932;25.554;2023-04-10T01:37:11;99615.72;;;9.62;48.95
43488;BME280;29078;41.932;25.554;2023-04-10T01:39:38;99627.91;;;9.63;49.12
43488;BME280;29078;41.932;25.554;2023-04-10T01:42:08;99646.38;;;9.71;48.96
43488;BME280;29078;41.932;25.554;2023-04-10T01:44:37;99609.19;;;9.41;48.84
43488;BME280;29078;41.932;25.554;2023-04-10T01:47:05;99672.84;;;9.85;48.80
43488;BME280;29078;41.932;25.554;2023-04-10T01:49:32;99670.91;;;9.79;49.10
43488;BME280;29078;41.932;25.554;2023-04-10T01:51:59;99672.56;;;9.72;49.36
43488;BME280;29078;41.932;25.554;2023-04-10T01:54:28;99669.44;;;9.69;48.91
43488;BME280;29078;41.932;25.554;2023-04-10T01:56:57;99673.25;;;9.66;49.29
43488;BME280;29078;41.932;25.554;2023-04-10T01:59:23;99647.06;;;9.48;49.30
43488;BME280;29078;41.932;25.554;2023-04-10T02:01:57;99614.19;;;9.20;49.44
43488;BME280;29078;41.932;25.554;2023-04-10T02:04:23;99608.25;;;9.18;49.70
43488;BME280;29078;41.932;25.554;2023-04-10T02:07:01;99574.22;;;8.92;49.67
43488;BME280;29078;41.932;25.554;2023-04-10T02:09:46;99627.03;;;9.23;49.50
43488;BME280;29078;41.932;25.554;2023-04-10T02:12:17;99619.63;;;9.18;49.55
43488;BME280;29078;41.932;25.554;2023-04-10T02:14:47;99638.72;;;9.20;49.36
43488;BME280;29078;41.932;25.554;2023-04-10T02:17:18;99678.03;;;9.46;49.56
43488;BME280;29078;41.932;25.554;2023-04-10T02:19:46;99580.94;;;8.86;49.52
43488;BME280;29078;41.932;25.554;2023-04-10T02:22:14;99613.22;;;9.05;49.65
43488;BME280;29078;41.932;25.554;2023-04-10T02:24:40;99666.19;;;9.42;49.78
43488;BME280;29078;41.932;25.554;2023-04-10T02:27:05;99663.72;;;9.41;49.80
43488;BME280;29078;41.932;25.554;2023-04-10T02:29:31;99631.63;;;9.21;49.56
43488;BME280;29078;41.932;25.554;2023-04-10T02:31:56;99536.38;;;8.69;49.33
43488;BME280;29078;41.932;25.554;2023-04-10T02:34:21;99606.13;;;9.05;49.34
43488;BME280;29078;41.932;25.554;2023-04-10T02:36:47;99634.25;;;9.29;49.59
43488;BME280;29078;41.932;25.554;2023-04-10T02:39:12;99639.19;;;9.32;49.39
43488;BME280;29078;41.932;25.554;2023-04-10T02:41:38;99640.34;;;9.30;49.50
43488;BME280;29078;41.932;25.554;2023-04-10T02:44:03;99536.06;;;8.47;49.51
43488;BME280;29078;41.932;25.554;2023-04-10T02:46:29;99562.53;;;8.70;49.52
43488;BME280;29078;41.932;25.554;2023-04-10T02:48:54;99573.88;;;8.71;49.61
43488;BME280;29078;41.932;25.554;2023-04-10T02:51:20;99651.72;;;9.14;49.71
43488;BME280;29078;41.932;25.554;2023-04-10T02:53:46;99661.78;;;9.10;50.21
43488;BME280;29078;41.932;25.554;2023-04-10T02:56:12;99610.25;;;8.83;49.71
43488;BME280;29078;41.932;25.554;2023-04-10T02:58:38;99647.63;;;9.03;49.88
43488;BME280;29078;41.932;25.554;2023-04-10T03:01:05;99655.03;;;9.00;49.63
43488;BME280;29078;41.932;25.554;2023-04-10T03:03:33;99631.31;;;8.75;49.71
43488;BME280;29078;41.932;25.554;2023-04-10T03:05:59;99610.25;;;8.67;50.20
43488;BME280;29078;41.932;25.554;2023-04-10T03:08:24;99560.53;;;8.32;49.97
43488;BME280;29078;41.932;25.554;2023-04-10T03:10:49;99595.59;;;8.48;49.87
43488;BME280;29078;41.932;25.554;2023-04-10T03:13:16;99645.94;;;8.78;50.00
43488;BME280;29078;41.932;25.554;2023-04-10T03:15:41;99632.47;;;8.73;49.70
43488;BME280;29078;41.932;25.554;2023-04-10T03:18:06;99571.75;;;8.42;50.12
43488;BME280;29078;41.932;25.554;2023-04-10T03:20:35;99612.88;;;8.67;49.83
43488;BME280;29078;41.932;25.554;2023-04-10T03:23:01;99645.94;;;8.78;49.73
43488;BME280;29078;41.932;25.554;2023-04-10T03:25:28;99660.28;;;8.83;50.08
43488;BME280;29078;41.932;25.554;2023-04-10T03:27:53;99619.78;;;8.68;49.67
43488;BME280;29078;41.932;25.554;2023-04-10T03:30:19;99607.44;;;8.60;49.88
43488;BME280;29078;41.932;25.554;2023-04-10T03:32:45;99566.78;;;8.31;49.63
43488;BME280;29078;41.932;25.554;2023-04-10T03:35:10;99526.94;;;8.01;49.78
43488;BME280;29078;41.932;25.554;2023-04-10T03:37:36;99545.19;;;8.11;49.66
43488;BME280;29078;41.932;25.554;2023-04-10T03:40:06;99534.34;;;8.06;49.65
43488;BME280;29078;41.932;25.554;2023-04-10T03:42:31;99632.94;;;8.68;49.80
43488;BME280;29078;41.932;25.554;2023-04-10T03:44:57;99577.00;;;8.34;49.89
43488;BME280;29078;41.932;25.554;2023-04-10T03:47:22;99564.47;;;8.19;49.54
43488;BME280;29078;41.932;25.554;2023-04-10T03:49:48;99565.13;;;8.21;50.15
43488;BME280;29078;41.932;25.554;2023-04-10T03:52:13;99553.56;;;8.14;49.75
43488;BME280;29078;41.932;25.554;2023-04-10T03:54:38;99587.81;;;8.31;49.90
43488;BME280;29078;41.932;25.554;2023-04-10T03:57:04;99555.22;;;8.07;49.75
43488;BME280;29078;41.932;25.554;2023-04-10T03:59:30;99599.97;;;8.23;49.77
43488;BME280;29078;41.932;25.554;2023-04-10T04:01:55;99599.31;;;8.21;50.26
43488;BME280;29078;41.932;25.554;2023-04-10T04:04:21;99650.88;;;8.65;49.99
43488;BME280;29078;41.932;25.554;2023-04-10T04:06:47;99623.88;;;8.46;49.76
43488;BME280;29078;41.932;25.554;2023-04-10T04:09:12;99643.63;;;8.58;49.91
43488;BME280;29078;41.932;25.554;2023-04-10T04:11:38;99662.72;;;8.69;49.68
43488;BME280;29078;41.932;25.554;2023-04-10T04:14:03;99574.75;;;7.96;49.90
43488;BME280;29078;41.932;25.554;2023-04-10T04:16:29;99657.63;;;8.59;50.07
43488;BME280;29078;41.932;25.554;2023-04-10T04:18:54;99625.69;;;8.38;49.84
43488;BME280;29078;41.932;25.554;2023-04-10T04:21:20;99647.75;;;8.53;50.14
43488;BME280;29078;41.932;25.554;2023-04-10T04:23:45;99662.88;;;8.59;49.96
43488;BME280;29078;41.932;25.554;2023-04-10T04:26:10;99668.47;;;8.56;50.00
43488;BME280;29078;41.932;25.554;2023-04-10T04:28:36;99661.72;;;8.53;49.51
43488;BME280;29078;41.932;25.554;2023-04-10T04:31:01;99661.88;;;8.52;50.23
43488;BME280;29078;41.932;25.554;2023-04-10T04:33:26;99648.72;;;8.44;49.81
43488;BME280;29078;41.932;25.554;2023-04-10T04:35:52;99658.09;;;8.46;50.40
43488;BME280;29078;41.932;25.554;2023-04-10T04:38:17;99633.50;;;8.21;50.38
43488;BME280;29078;41.932;25.554;2023-04-10T04:40:44;99676.34;;;8.48;50.20
43488;BME280;29078;41.932;25.554;2023-04-10T04:43:10;99646.34;;;8.24;50.10
43488;BME280;29078;41.932;25.554;2023-04-10T04:45:35;99663.16;;;8.40;50.13
43488;BME280;29078;41.932;25.554;2023-04-10T04:48:01;99670.59;;;8.44;50.54
43488;BME280;29078;41.932;25.554;2023-04-10T04:50:26;99593.47;;;7.93;50.53
43488;BME280;29078;41.932;25.554;2023-04-10T04:52:51;99673.38;;;8.51;50.51
43488;BME280;29078;41.932;25.554;2023-04-10T04:55:17;99667.47;;;8.57;50.16
43488;BME280;29078;41.932;25.554;2023-04-10T04:57:42;99672.06;;;8.47;50.57
43488;BME280;29078;41.932;25.554;2023-04-10T05:00:08;99618.88;;;8.27;49.80
43488;BME280;29078;41.932;25.554;2023-04-10T05:02:34;99618.28;;;8.33;50.02
43488;BME280;29078;41.932;25.554;2023-04-10T05:04:59;99643.13;;;8.47;50.56
43488;BME280;29078;41.932;25.554;2023-04-10T05:07:25;99609.69;;;8.31;50.21
43488;BME280;29078;41.932;25.554;2023-04-10T05:09:51;99651.19;;;8.62;50.33
43488;BME280;29078;41.932;25.554;2023-04-10T05:12:16;99684.28;;;8.88;50.00
43488;BME280;29078;41.932;25.554;2023-04-10T05:14:41;99671.50;;;8.94;49.83
43488;BME280;29078;41.932;25.554;2023-04-10T05:17:07;99655.00;;;8.83;49.58
43488;BME280;29078;41.932;25.554;2023-04-10T05:19:32;99650.22;;;8.79;49.54
43488;BME280;29078;41.932;25.554;2023-04-10T05:21:58;99630.16;;;8.78;49.05
43488;BME280;29078;41.932;25.554;2023-04-10T05:24:23;99652.41;;;9.08;49.48
43488;BME280;29078;41.932;25.554;2023-04-10T05:26:48;99602.00;;;8.86;49.35
43488;BME280;29078;41.932;25.554;2023-04-10T05:29:14;99642.00;;;9.22;49.21
43488;BME280;29078;41.932;25.554;2023-04-10T05:31:39;99678.66;;;9.56;48.87
43488;BME280;29078;41.932;25.554;2023-04-10T05:34:05;99648.56;;;9.43;48.64
43488;BME280;29078;41.932;25.554;2023-04-10T05:36:30;99666.47;;;9.64;49.14
43488;BME280;29078;41.932;25.554;2023-04-10T05:38:56;99655.59;;;9.59;49.01
43488;BME280;29078;41.932;25.554;2023-04-10T05:41:22;99697.56;;;9.84;48.62
43488;BME280;29078;41.932;25.554;2023-04-10T05:43:47;99677.63;;;9.90;48.83
43488;BME280;29078;41.932;25.554;2023-04-10T05:46:14;99696.16;;;10.13;48.45
43488;BME280;29078;41.932;25.554;2023-04-10T05:48:39;99682.78;;;10.14;48.41
43488;BME280;29078;41.932;25.554;2023-04-10T05:51:05;99628.47;;;9.97;48.45
43488;BME280;29078;41.932;25.554;2023-04-10T05:53:30;99679.44;;;10.29;48.17
43488;BME280;29078;41.932;25.554;2023-04-10T05:55:57;99694.53;;;10.51;48.40
43488;BME280;29078;41.932;25.554;2023-04-10T05:58:24;99642.03;;;10.25;48.01
43488;BME280;29078;41.932;25.554;2023-04-10T06:00:50;99677.34;;;10.55;47.53
43488;BME280;29078;41.932;25.554;2023-04-10T06:03:15;99637.16;;;10.45;47.93
43488;BME280;29078;41.932;25.554;2023-04-10T06:05:41;99647.97;;;10.58;48.09
43488;BME280;29078;41.932;25.554;2023-04-10T06:08:06;99654.78;;;10.75;47.61
43488;BME280;29078;41.932;25.554;2023-04-10T06:10:32;99651.31;;;10.75;47.46
43488;BME280;29078;41.932;25.554;2023-04-10T06:12:57;99625.91;;;10.74;47.50
43488;BME280;29078;41.932;25.554;2023-04-10T06:15:22;99627.13;;;10.86;47.27
43488;BME280;29078;41.932;25.554;2023-04-10T06:17:48;99609.56;;;10.93;46.39
43488;BME280;29078;41.932;25.554;2023-04-10T06:20:13;99678.22;;;11.39;46.84
43488;BME280;29078;41.932;25.554;2023-04-10T06:22:39;99587.50;;;10.86;46.63
43488;BME280;29078;41.932;25.554;2023-04-10T06:25:05;99634.31;;;11.15;46.69
43488;BME280;29078;41.932;25.554;2023-04-10T06:27:32;99621.97;;;11.07;46.76
43488;BME280;29078;41.932;25.554;2023-04-10T06:29:57;99691.25;;;11.55;45.83
43488;BME280;29078;41.932;25.554;2023-04-10T06:32:23;99665.88;;;11.31;45.97
43488;BME280;29078;41.932;25.554;2023-04-10T06:34:48;99634.00;;;11.10;46.17
43488;BME280;29078;41.932;25.554;2023-04-10T06:37:14;99658.56;;;11.19;46.12
43488;BME280;29078;41.932;25.554;2023-04-10T06:39:39;99648.22;;;11.09;45.92
43488;BME280;29078;41.932;25.554;2023-04-10T06:42:05;99633.44;;;11.00;46.06
43488;BME280;29078;41.932;25.554;2023-04-10T06:44:30;99568.16;;;10.71;46.60
43488;BME280;29078;41.932;25.554;2023-04-10T06:46:55;99673.03;;;11.45;46.07
43488;BME280;29078;41.932;25.554;2023-04-10T06:49:21;99669.56;;;11.60;46.18
43488;BME280;29078;41.932;25.554;2023-04-10T06:51:46;99691.63;;;11.90;45.96
43488;BME280;29078;41.932;25.554;2023-04-10T06:54:13;99691.16;;;12.01;45.74
43488;BME280;29078;41.932;25.554;2023-04-10T06:56:38;99649.34;;;11.82;45.81
43488;BME280;29078;41.932;25.554;2023-04-10T06:59:03;99615.22;;;11.57;44.98
43488;BME280;29078;41.932;25.554;2023-04-10T07:01:29;99627.56;;;11.80;45.18
43488;BME280;29078;41.932;25.554;2023-04-10T07:03:54;99635.88;;;11.91;44.97
43488;BME280;29078;41.932;25.554;2023-04-10T07:06:20;99700.31;;;12.34;45.14
43488;BME280;29078;41.932;25.554;2023-04-10T07:08:47;99686.66;;;12.31;44.30
43488;BME280;29078;41.932;25.554;2023-04-10T07:11:13;99643.88;;;12.13;44.38
43488;BME280;29078;41.932;25.554;2023-04-10T07:13:38;99620.63;;;11.93;44.29
43488;BME280;29078;41.932;25.554;2023-04-10T07:16:05;99685.06;;;12.36;44.10
43488;BME280;29078;41.932;25.554;2023-04-10T07:18:30;99653.44;;;12.14;44.00
43488;BME280;29078;41.932;25.554;2023-04-10T07:20:56;99714.22;;;12.36;43.73
43488;BME280;29078;41.932;25.554;2023-04-10T07:23:21;99713.47;;;12.43;44.21
43488;BME280;29078;41.932;25.554;2023-04-10T07:25:47;99675.06;;;12.17;44.62
43488;BME280;29078;41.932;25.554;2023-04-10T07:28:12;99692.50;;;12.26;44.43
43488;BME280;29078;41.932;25.554;2023-04-10T07:30:38;99685.69;;;12.02;44.84
43488;BME280;29078;41.932;25.554;2023-04-10T07:33:03;99695.16;;;12.12;45.62
43488;BME280;29078;41.932;25.554;2023-04-10T07:35:28;99716.59;;;12.17;45.50
43488;BME280;29078;41.932;25.554;2023-04-10T07:37:54;99706.84;;;12.02;46.04
43488;BME280;29078;41.932;25.554;2023-04-10T07:40:19;99682.19;;;11.87;46.17
43488;BME280;29078;41.932;25.554;2023-04-10T07:42:45;99603.19;;;11.40;46.72
43488;BME280;29078;41.932;25.554;2023-04-10T07:45:10;99670.16;;;11.85;46.81
43488;BME280;29078;41.932;25.554;2023-04-10T07:47:36;99652.00;;;11.82;47.38
43488;BME280;29078;41.932;25.554;2023-04-10T07:50:02;99659.94;;;11.82;47.46
43488;BME280;29078;41.932;25.554;2023-04-10T07:52:27;99682.41;;;12.00;46.98
43488;BME280;29078;41.932;25.554;2023-04-10T07:54:53;99637.50;;;11.77;46.63
43488;BME280;29078;41.932;25.554;2023-04-10T07:57:18;99631.91;;;11.72;46.61
43488;BME280;29078;41.932;25.554;2023-04-10T07:59:44;99682.84;;;12.04;46.57
43488;BME280;29078;41.932;25.554;2023-04-10T08:02:09;99669.09;;;11.94;46.99
43488;BME280;29078;41.932;25.554;2023-04-10T08:04:35;99654.00;;;11.80;47.13
43488;BME280;29078;41.932;25.554;2023-04-10T08:07:00;99610.56;;;11.59;47.71
43488;BME280;29078;41.932;25.554;2023-04-10T08:09:26;99669.53;;;11.97;47.54
43488;BME280;29078;41.932;25.554;2023-04-10T08:11:51;99622.88;;;11.67;47.48
43488;BME280;29078;41.932;25.554;2023-04-10T08:14:17;99703.38;;;12.17;47.76
43488;BME280;29078;41.932;25.554;2023-04-10T08:16:42;99700.53;;;12.18;47.85
43488;BME280;29078;41.932;25.554;2023-04-10T08:19:08;99630.34;;;11.63;47.68
43488;BME280;29078;41.932;25.554;2023-04-10T08:21:33;99711.03;;;12.12;48.02
43488;BME280;29078;41.932;25.554;2023-04-10T08:24:01;99715.34;;;12.13;48.52
43488;BME280;29078;41.932;25.554;2023-04-10T08:26:27;99683.94;;;11.95;48.49
43488;BME280;29078;41.932;25.554;2023-04-10T08:28:57;99595.81;;;11.35;48.57
43488;BME280;29078;41.932;25.554;2023-04-10T08:31:24;99706.47;;;12.05;49.50
43488;BME280;29078;41.932;25.554;2023-04-10T08:33:51;99643.56;;;11.63;49.84
43488;BME280;29078;41.932;25.554;2023-04-10T08:36:16;99689.31;;;11.87;49.66
43488;BME280;29078;41.932;25.554;2023-04-10T08:38:43;99704.38;;;12.01;50.52
43488;BME280;29078;41.932;25.554;2023-04-10T08:41:09;99669.06;;;11.79;50.52
43488;BME280;29078;41.932;25.554;2023-04-10T08:43:36;99660.34;;;11.70;51.71
43488;BME280;29078;41.932;25.554;2023-04-10T08:46:01;99659.34;;;11.71;52.05
43488;BME280;29078;41.932;25.554;2023-04-10T08:48:33;99705.31;;;11.93;51.64
43488;BME280;29078;41.932;25.554;2023-04-10T08:51:00;99626.16;;;11.39;51.79
43488;BME280;29078;41.932;25.554;2023-04-10T08:53:30;99650.22;;;11.59;52.16
43488;BME280;29078;41.932;25.554;2023-04-10T08:55:57;99700.38;;;11.90;52.29
43488;BME280;29078;41.932;25.554;2023-04-10T08:58:24;99636.66;;;11.48;52.58
43488;BME280;29078;41.932;25.554;2023-04-10T09:00:50;99685.66;;;11.88;53.51
43488;BME280;29078;41.932;25.554;2023-04-10T09:03:16;99617.31;;;11.32;52.85
43488;BME280;29078;41.932;25.554;2023-04-10T09:05:42;99636.91;;;11.38;53.53
43488;BME280;29078;41.932;25.554;2023-04-10T09:08:07;99651.78;;;11.54;52.76
43488;BME280;29078;41.932;25.554;2023-04-10T09:10:34;99648.03;;;11.63;53.57
43488;BME280;29078;41.932;25.554;2023-04-10T09:13:00;99599.25;;;11.36;53.54
43488;BME280;29078;41.932;25.554;2023-04-10T09:15:25;99624.97;;;11.57;53.11
43488;BME280;29078;41.932;25.554;2023-04-10T09:17:58;99679.22;;;11.90;53.06
43488;BME280;29078;41.932;25.554;2023-04-10T09:20:25;99617.31;;;11.47;53.59
43488;BME280;29078;41.932;25.554;2023-04-10T09:22:51;99654.66;;;11.82;53.52
43488;BME280;29078;41.932;25.554;2023-04-10T09:25:37;99592.34;;;11.50;54.15
43488;BME280;29078;41.932;25.554;2023-04-10T09:28:07;99662.97;;;11.93;54.01
43488;BME280;29078;41.932;25.554;2023-04-10T09:30:37;99666.25;;;11.95;53.99
43488;BME280;29078;41.932;25.554;2023-04-10T09:35:45;99586.03;;;11.51;53.85
43488;BME280;29078;41.932;25.554;2023-04-10T09:38:15;99651.47;;;12.01;53.65
43488;BME280;29078;41.932;25.554;2023-04-10T09:40:41;99603.91;;;11.63;53.73
43488;BME280;29078;41.932;25.554;2023-04-10T09:43:24;99640.06;;;12.00;54.43
43488;BME280;29078;41.932;25.554;2023-04-10T09:45:53;99644.25;;;12.09;54.51
43488;BME280;29078;41.932;25.554;2023-04-10T09:48:20;99596.97;;;11.77;54.13
43488;BME280;29078;41.932;25.554;2023-04-10T09:50:46;99577.53;;;11.70;54.20
43488;BME280;29078;41.932;25.554;2023-04-10T09:53:17;99633.00;;;12.22;54.01
43488;BME280;29078;41.932;25.554;2023-04-10T09:55:47;99623.59;;;12.20;54.33
43488;BME280;29078;41.932;25.554;2023-04-10T09:58:13;99637.88;;;12.40;54.21
43488;BME280;29078;41.932;25.554;2023-04-10T10:00:46;99631.00;;;12.46;54.13
43488;BME280;29078;41.932;25.554;2023-04-10T10:03:16;99619.97;;;12.42;53.67
43488;BME280;29078;41.932;25.554;2023-04-10T10:05:49;99582.75;;;12.29;53.89
43488;BME280;29078;41.932;25.554;2023-04-10T10:08:15;99632.59;;;12.61;53.20
43488;BME280;29078;41.932;25.554;2023-04-10T10:10:52;99569.91;;;12.26;53.34
43488;BME280;29078;41.932;25.554;2023-04-10T10:13:32;99624.00;;;12.59;53.69
43488;BME280;29078;41.932;25.554;2023-04-10T10:16:21;99574.00;;;12.28;53.74
43488;BME280;29078;41.932;25.554;2023-04-10T10:21:22;99626.41;;;12.54;53.29
43488;BME280;29078;41.932;25.554;2023-04-10T10:23:49;99562.72;;;12.20;52.75
43488;BME280;29078;41.932;25.554;2023-04-10T10:26:18;99588.19;;;12.42;52.79
43488;BME280;29078;41.932;25.554;2023-04-10T10:28:45;99603.91;;;12.65;52.83
43488;BME280;29078;41.932;25.554;2023-04-10T10:31:12;99566.69;;;12.30;52.93
43488;BME280;29078;41.932;25.554;2023-04-10T10:33:38;99571.22;;;12.36;53.15
43488;BME280;29078;41.932;25.554;2023-04-10T10:36:05;99557.34;;;12.34;52.59
43488;BME280;29078;41.932;25.554;2023-04-10T10:38:31;99612.75;;;12.72;53.26
43488;BME280;29078;41.932;25.554;2023-04-10T10:41:08;99611.72;;;12.73;53.00
43488;BME280;29078;41.932;25.554;2023-04-10T10:46:08;99606.88;;;12.77;53.26
43488;BME280;29078;41.932;25.554;2023-04-10T10:48:35;99620.94;;;12.77;52.98
43488;BME280;29078;41.932;25.554;2023-04-10T10:51:00;99534.22;;;12.43;52.73
43488;BME280;29078;41.932;25.554;2023-04-10T10:53:43;99557.69;;;12.67;52.66
43488;BME280;29078;41.932;25.554;2023-04-10T11:01:12;99585.00;;;13.17;51.64
43488;BME280;29078;41.932;25.554;2023-04-10T11:03:38;99593.66;;;13.32;51.35
43488;BME280;29078;41.932;25.554;2023-04-10T11:06:11;99589.47;;;13.45;50.87
43488;BME280;29078;41.932;25.554;2023-04-10T11:09:06;99555.34;;;13.35;50.87
43488;BME280;29078;41.932;25.554;2023-04-10T11:11:56;99570.19;;;13.64;50.24
43488;BME280;29078;41.932;25.554;2023-04-10T11:14:23;99499.97;;;13.19;50.12
43488;BME280;29078;41.932;25.554;2023-04-10T11:16:48;99572.47;;;13.67;50.03
43488;BME280;29078;41.932;25.554;2023-04-10T11:19:14;99576.97;;;13.73;50.12
43488;BME280;29078;41.932;25.554;2023-04-10T11:22:04;99572.13;;;13.83;50.08
43488;BME280;29078;41.932;25.554;2023-04-10T11:24:51;99571.69;;;13.80;49.71
43488;BME280;29078;41.932;25.554;2023-04-10T11:27:39;99563.13;;;13.84;49.91
43488;BME280;29078;41.932;25.554;2023-04-10T11:30:26;99490.88;;;13.34;49.68
43488;BME280;29078;41.932;25.554;2023-04-10T11:32:53;99509.94;;;13.51;49.74
43488;BME280;29078;41.932;25.554;2023-04-10T11:35:19;99567.19;;;13.74;49.58
43488;BME280;29078;41.932;25.554;2023-04-10T11:37:44;99525.09;;;13.64;49.96
43488;BME280;29078;41.932;25.554;2023-04-10T11:40:10;99561.91;;;13.87;49.81
43488;BME280;29078;41.932;25.554;2023-04-10T11:42:35;99518.16;;;13.63;50.02
43488;BME280;29078;41.932;25.554;2023-04-10T11:45:25;99559.88;;;13.89;50.02
43488;BME280;29078;41.932;25.554;2023-04-10T11:47:52;99555.59;;;13.88;49.76
43488;BME280;29078;41.932;25.554;2023-04-10T11:50:18;99497.88;;;13.42;49.63
43488;BME280;29078;41.932;25.554;2023-04-10T11:52:48;99445.72;;;13.21;49.89
43488;BME280;29078;41.932;25.554;2023-04-10T11:55:14;99536.34;;;13.73;50.15
43488;BME280;29078;41.932;25.554;2023-04-10T11:57:41;99508.56;;;13.62;49.94
43488;BME280;29078;41.932;25.554;2023-04-10T12:00:07;99492.41;;;13.57;49.79
43488;BME280;29078;41.932;25.554;2023-04-10T12:02:33;99542.75;;;13.98;49.99
43488;BME280;29078;41.932;25.554;2023-04-10T12:04:58;99510.63;;;13.73;50.17
43488;BME280;29078;41.932;25.554;2023-04-10T12:07:24;99538.47;;;13.97;50.19
43488;BME280;29078;41.932;25.554;2023-04-10T12:09:56;99462.19;;;13.45;50.13
43488;BME280;29078;41.932;25.554;2023-04-10T12:12:33;99527.59;;;13.79;50.06
43488;BME280;29078;41.932;25.554;2023-04-10T12:15:00;99525.97;;;13.78;50.13
43488;BME280;29078;41.932;25.554;2023-04-10T12:17:25;99537.41;;;13.85;50.10
43488;BME280;29078;41.932;25.554;2023-04-10T12:19:51;99475.44;;;13.45;50.76
43488;BME280;29078;41.932;25.554;2023-04-10T12:22:17;99515.50;;;13.63;50.87
43488;BME280;29078;41.932;25.554;2023-04-10T12:27:19;99520.59;;;13.64;51.29
43488;BME280;29078;41.932;25.554;2023-04-10T12:29:46;99468.81;;;13.27;51.66
43488;BME280;29078;41.932;25.554;2023-04-10T12:32:12;99398.81;;;12.81;51.85
43488;BME280;29078;41.932;25.554;2023-04-10T12:34:37;99506.06;;;13.47;51.97
43488;BME280;29078;41.932;25.554;2023-04-10T12:37:03;99400.63;;;12.73;51.99
43488;BME280;29078;41.932;25.554;2023-04-10T12:39:28;99446.41;;;12.95;52.07
43488;BME280;29078;41.932;25.554;2023-04-10T12:42:13;99430.69;;;12.94;53.37
43488;BME280;29078;41.932;25.554;2023-04-10T12:44:55;99416.13;;;12.77;52.55
43488;BME280;29078;41.932;25.554;2023-04-10T12:47:22;99461.50;;;13.01;52.87
43488;BME280;29078;41.932;25.554;2023-04-10T12:52:32;99496.13;;;13.28;53.23
43488;BME280;29078;41.932;25.554;2023-04-10T12:55:16;99499.59;;;13.28;53.21
43488;BME280;29078;41.932;25.554;2023-04-10T12:57:46;99491.84;;;13.27;52.84
43488;BME280;29078;41.932;25.554;2023-04-10T13:00:14;99492.66;;;13.27;52.81
43488;BME280;29078;41.932;25.554;2023-04-10T13:02:40;99416.13;;;12.77;52.30
43488;BME280;29078;41.932;25.554;2023-04-10T13:05:06;99415.50;;;12.75;52.49
43488;BME280;29078;41.932;25.554;2023-04-10T13:07:32;99441.72;;;12.97;52.59
43488;BME280;29078;41.932;25.554;2023-04-10T13:09:58;99412.72;;;12.89;52.49
43488;BME280;29078;41.932;25.554;2023-04-10T13:12:23;99384.91;;;12.72;52.27
43488;BME280;29078;41.932;25.554;2023-04-10T13:14:51;99442.59;;;13.11;52.83
43488;BME280;29078;41.932;25.554;2023-04-10T13:17:21;99475.94;;;13.27;52.83
43488;BME280;29078;41.932;25.554;2023-04-10T13:19:47;99417.44;;;12.94;52.94